Hot Springs Natl Park, AR

4:50 PM CST on January 21, 2017 (GMT -0600)
ME1389 | | Change Station
Active Advisory: Tornado Watch

Elev 596 ft 34.51 °N, 93.05 °W | Updated 44 minutes ago

Overcast
Overcast
65.0 °F
Feels Like 65.0 °F
N
0.0
Wind Variable Wind from East
Gusts 0.0 mph

Today
High -- | Low -- °F
--% Chance of Precip.
Yesterday
High -- | Low -- °F
Precip. -- in
Pressure 29.47 in
Visibility 10.0 miles
Clouds Mostly Cloudy 11000 ft
Dew Point 58 °F
Humidity 77%
Rainfall 0.00 in
Snow Depth Not available.
7:16 AM 5:31 PM
Waning Crescent, 31% visible
METAR KHOT 212153Z AUTO 07004KT 10SM BKN110 19/14 A2947 RMK AO2 SLP977 T01890144
Pressure 29.47 in
Visibility 10.0 miles
Clouds Mostly Cloudy 11000 ft
Dew Point 58 °F
Humidity 77%
Rainfall 0.00 in
Snow Depth Not available.
7:16 AM 5:31 PM
Waning Crescent, 31% visible
METAR KHOT 212153Z AUTO 07004KT 10SM BKN110 19/14 A2947 RMK AO2 SLP977 T01890144

Get Your Daily Forecast Email!

Thanks for signing up!

Be on the lookout for a verification email in your inbox.

You'll start receiving the daily forecast at 8 AM.

×

10-Day Weather Forecast

Almanac

Astronomy

Jan. 21, 2017 Rise Set
Actual Time
Civil Twilight
Nautical Twilight
Astronomical Twilight
Moon
Length of Visible Light
Length of Day
Tomorrow will be .
, % of the Moon is Illuminated

Today's Extremes

State Highs State Lows

Community

WunderPhotos

Upload Photos

1,962,540 photos uploaded!

WunderBlog® & News

Nearby

Air Quality

  Air Quality AQ Index Pollutant
Not available.

Snow Depth

Station Depth Elevation

Earthquake Activity

City Distance Mag. Time & Date
Minimum magnitude displayed is 2.5.

Coastal Water Temperatures

Place Temperature

Stations

Nearby Weather Stations

Station Location Temp. Windchill Dew Point Humidity Wind Precip. Elev Updated Type
                   

Watches & Warnings

Tornado Watch
Issued: 4:43 PM CST Jan. 21, 2017 – National Weather Service

Tornado Watch 16 remains in effect until 900 PM CST for the
following locations


AR
. Arkansas counties included are

Bradley Calhoun Clark
Cleveland Columbia Dallas
Garland Grant Hempstead
Hot Spring Howard Jefferson
Lafayette Little River Lonoke
Miller Montgomery Nevada
Ouachita Perry Pike
Polk Pulaski Saline
Scott Sevier Union
Yell